Pendleton, TX (76564)

10:17 PM CDT on March 31, 2015 (GMT -0500)
Draughon-Miller Central Texas Regional | | Change Station
CLOSE
Current Station
Airport
Location: Temple,
Elevation: 682 ft
Nearby Weather Stations

Elev 682 ft 31.15 °N, 97.41 °W | Updated 22 minutes ago

Partly Cloudy
Partly Cloudy
70 °F
Feels Like 70 °F
N
9
Wind Variable Wind from SSE

Today
High -- | Low -- °F
--% Chance of Precip.
Yesterday
High -- | Low -- °F
Precip. -- in
7:19 AM 7:47 PM
Waxing Gibbous, 90% visible
Pressure 29.93 in
Visibility 10.0 miles
Clouds Clear
Dew Point 57 °F
Humidity 64%
Rainfall 0.00 in
Snow Depth Not available.
UV 0 out of 12
Pollen 10.70 out of 12
Air Quality Not available.
Flu Activity Not available.
METAR KTPL 010255Z AUTO 16008KT 10SM CLR 21/14 A2993 RMK AO1 52010

More Conditions Fewer Conditions

Pressure 29.93 in
Visibility 10.0 miles
Clouds Clear
Dew Point 57 °F
Humidity 64%
Rainfall 0.00 in
Snow Depth Not available.
UV 0 out of 12
Pollen 10.70 out of 12
Air Quality Not available.
Flu Activity Not available.
METAR KTPL 010255Z AUTO 16008KT 10SM CLR 21/14 A2993 RMK AO1 52010

More Conditions Fewer Conditions

Nowcast | as of 9:09 PM CDT on March 31, 2015

Skies were generally partly to mostly clear across much of north central Texas this evening with south to southeast winds of around 10 to 15 mph. A cluster of showers and thunderstorms was noted this evening across western North Texas just to the west of Wichita Falls. This activity is expected to slowly move to the east and southeast and may impact locations across Jack...wise...and Montague counties around or just after midnight. Thunderstorms may result in gusty winds...large hail...heavy rain...and frequent cloud to ground lightning. Otherwise...expect generally quiet conditions...with temperatures in the 70s. Skies should remain partly to mostly clear across most areas.

×

10-Day Weather Forecast

Almanac

Astronomy

Mar. 31, 2015 Rise Set
Actual Time
Civil Twilight
Nautical Twilight
Astronomical Twilight
Moon
Length of Visible Light
Length of Day
Tomorrow will be .
, % of the Moon is Illuminated

Today's Extremes

State Highs State Lows

Community

WunderPhotos

Upload Photos

1,809,889 photos uploaded!

WunderBlogs® & News

Nearby

Air Quality

  Air Quality AQ Index Pollutant
Not available.

Snow Depth

Station Depth Elevation

Earthquake Activity

City Distance Mag. Time & Date
Minimum magnitude displayed is 2.5.

Coastal Water Temperatures

Place Temperature

Stations

Nearby Weather Stations

Station Location Temp. Windchill Dew Point Humidity Wind Precip. Elev Updated Type